Time;durP1;ratioP1;P1;durP2;ratioP2;P2;SDS_P1;SDS_P2;PMS_P1;PMS_P2;Temp;Humidity;BMP_temperature;BMP_pressure;BME280_temperature;BME280_humidity;BME280_pressure;Samples;Min_cycle;Max_cycle;Signal;HPM_P1;HPM_P2
2022/09/29 00:01:57;;;;;;;3.08;2.55;;;;;;;;;;5030461;28;20214;-86
2022/09/29 00:04:24;;;;;;;2.60;2.38;;;;;;;;;;5031528;28;20246;-86
2022/09/29 00:06:52;;;;;;;2.50;2.30;;;;;;;;;;5032100;28;20293;-87
2022/09/29 00:09:21;;;;;;;2.55;2.35;;;;;;;;;;5033467;28;20222;-86
2022/09/29 00:11:49;;;;;;;2.05;1.95;;;;;;;;;;5033311;28;20225;-86
2022/09/29 00:14:17;;;;;;;2.47;2.28;;;;;;;;;;5033428;28;20249;-86
2022/09/29 00:16:45;;;;;;;2.38;2.20;;;;;;;;;;5033871;28;20244;-86
2022/09/29 00:19:13;;;;;;;2.67;2.47;;;;;;;;;;5033833;28;20202;-86
2022/09/29 00:21:40;;;;;;;2.50;2.30;;;;;;;;;;5033764;28;20301;-86
2022/09/29 00:24:08;;;;;;;3.50;2.70;;;;;;;;;;5033445;28;20690;-86
2022/09/29 00:26:37;;;;;;;2.88;2.67;;;;;;;;;;5032873;28;20206;-86
2022/09/29 00:29:05;;;;;;;2.00;1.90;;;;;;;;;;5023126;28;20210;-86
2022/09/29 00:31:34;;;;;;;1.98;1.88;;;;;;;;;;5033601;28;20294;-86
2022/09/29 00:34:02;;;;;;;2.40;2.20;;;;;;;;;;5029841;28;20226;-87
2022/09/29 00:36:30;;;;;;;2.00;1.90;;;;;;;;;;5031920;28;20290;-86
2022/09/29 00:38:59;;;;;;;2.63;2.42;;;;;;;;;;5033470;28;20218;-86
2022/09/29 00:41:28;;;;;;;3.13;2.92;;;;;;;;;;5032971;28;20210;-86
2022/09/29 00:44:00;;;;;;;2.72;2.53;;;;;;;;;;5029763;28;20225;-85
2022/09/29 00:46:38;;;;;;;2.30;2.10;;;;;;;;;;5039622;28;20260;-87
2022/09/29 00:49:12;;;;;;;2.45;2.25;;;;;;;;;;5031510;28;20285;-86
2022/09/29 00:51:42;;;;;;;2.50;2.30;;;;;;;;;;5032540;28;20574;-86
2022/09/29 00:54:10;;;;;;;2.60;2.33;;;;;;;;;;5033063;28;20306;-86
2022/09/29 00:56:47;;;;;;;2.47;2.28;;;;;;;;;;5031778;28;20874;-85
2022/09/29 00:59:20;;;;;;;2.17;2.08;;;;;;;;;;5033234;28;20205;-86
2022/09/29 01:01:48;;;;;;;2.65;2.40;;;;;;;;;;5033391;28;20209;-85
2022/09/29 01:04:19;;;;;;;3.15;2.95;;;;;;;;;;5032546;28;20313;-86
2022/09/29 01:06:49;;;;;;;2.80;2.60;;;;;;;;;;5031501;28;20206;-85
2022/09/29 01:09:19;;;;;;;2.08;1.98;;;;;;;;;;5037040;28;20190;-86
2022/09/29 01:11:47;;;;;;;2.83;2.60;;;;;;;;;;5033065;28;20643;-86
2022/09/29 01:14:16;;;;;;;2.55;2.35;;;;;;;;;;5032016;28;20214;-86
2022/09/29 01:16:44;;;;;;;2.63;2.42;;;;;;;;;;5025162;28;20209;-86
2022/09/29 01:19:19;;;;;;;2.33;2.20;;;;;;;;;;5032483;28;20202;-86
2022/09/29 01:21:57;;;;;;;2.20;2.10;;;;;;;;;;5032509;28;20187;-86
2022/09/29 01:25:05;;;;;;;2.60;2.40;;;;;;;;;;5032099;28;20305;-86
2022/09/29 01:28:06;;;;;;;3.65;3.28;;;;;;;;;;5018931;28;20198;-86
2022/09/29 01:31:20;;;;;;;2.83;2.45;;;;;;;;;;5024358;28;20202;-86
2022/09/29 01:33:54;;;;;;;3.17;2.88;;;;;;;;;;5028272;28;20218;-86
2022/09/29 01:36:30;;;;;;;2.55;2.10;;;;;;;;;;5025847;28;20191;-86
2022/09/29 01:39:10;;;;;;;2.22;2.13;;;;;;;;;;5031700;28;20568;-86
2022/09/29 01:41:44;;;;;;;2.00;1.90;;;;;;;;;;5016832;28;20672;-86
2022/09/29 01:44:20;;;;;;;1.60;1.50;;;;;;;;;;5031796;28;20214;-86
2022/09/29 01:46:53;;;;;;;1.80;1.70;;;;;;;;;;5031722;28;20287;-86
2022/09/29 01:49:23;;;;;;;1.65;1.55;;;;;;;;;;5027251;28;20280;-86
2022/09/29 01:51:54;;;;;;;1.90;1.80;;;;;;;;;;5031572;28;20281;-85
2022/09/29 01:54:29;;;;;;;1.70;1.60;;;;;;;;;;5032139;28;20226;-88
2022/09/29 01:57:01;;;;;;;1.80;1.70;;;;;;;;;;5034352;28;21078;-86
2022/09/29 01:59:38;;;;;;;1.60;1.50;;;;;;;;;;5033160;28;20202;-86
2022/09/29 02:02:11;;;;;;;2.92;2.72;;;;;;;;;;5027548;28;20285;-86
2022/09/29 02:04:43;;;;;;;2.45;2.35;;;;;;;;;;5031990;28;20226;-86
2022/09/29 02:07:16;;;;;;;3.08;2.88;;;;;;;;;;5031972;28;20221;-86
2022/09/29 02:09:47;;;;;;;3.55;3.25;;;;;;;;;;5029903;28;20198;-86
2022/09/29 02:12:22;;;;;;;3.70;3.40;;;;;;;;;;5027479;28;20191;-85
2022/09/29 02:14:52;;;;;;;3.22;2.85;;;;;;;;;;5032131;28;20217;-85
2022/09/29 02:17:22;;;;;;;2.75;2.55;;;;;;;;;;5031238;28;20220;-85
2022/09/29 02:19:52;;;;;;;3.15;2.85;;;;;;;;;;5019730;28;20289;-86
2022/09/29 02:22:20;;;;;;;3.42;3.13;;;;;;;;;;5033593;28;20206;-85
2022/09/29 02:24:48;;;;;;;3.03;2.50;;;;;;;;;;5029670;28;20222;-86
2022/09/29 02:27:15;;;;;;;1.90;1.80;;;;;;;;;;5032527;28;20277;-86
2022/09/29 02:29:43;;;;;;;1.60;1.50;;;;;;;;;;5035058;28;20636;-86
2022/09/29 02:32:11;;;;;;;1.92;1.83;;;;;;;;;;5034449;28;20226;-86
2022/09/29 02:34:44;;;;;;;2.53;2.40;;;;;;;;;;5041711;28;20573;-86
2022/09/29 02:37:26;;;;;;;2.50;2.30;;;;;;;;;;5033949;28;20579;-86
2022/09/29 02:40:18;;;;;;;4.20;3.80;;;;;;;;;;5033994;28;20195;-86
2022/09/29 02:42:58;;;;;;;3.45;3.15;;;;;;;;;;5034781;28;20198;-86
2022/09/29 02:45:36;;;;;;;2.97;2.78;;;;;;;;;;5033950;28;20606;-86
2022/09/29 02:48:20;;;;;;;2.30;2.10;;;;;;;;;;5032330;28;20285;-86
2022/09/29 02:51:06;;;;;;;2.90;2.70;;;;;;;;;;5028177;28;20297;-86
2022/09/29 02:53:45;;;;;;;2.40;2.20;;;;;;;;;;5032667;28;20590;-86
2022/09/29 02:56:18;;;;;;;3.38;3.08;;;;;;;;;;5032053;28;20209;-86
2022/09/29 02:58:53;;;;;;;6.43;5.75;;;;;;;;;;5030311;28;20186;-86
2022/09/29 03:01:20;;;;;;;5.88;5.28;;;;;;;;;;5033761;28;20650;-86
2022/09/29 03:03:48;;;;;;;4.88;4.38;;;;;;;;;;5034910;28;20249;-87
2022/09/29 03:06:20;;;;;;;4.85;4.45;;;;;;;;;;5033539;28;20314;-87
2022/09/29 03:08:47;;;;;;;3.13;2.83;;;;;;;;;;5031644;28;20221;-87
2022/09/29 03:11:15;;;;;;;3.40;3.10;;;;;;;;;;5033441;28;20226;-87
2022/09/29 03:13:43;;;;;;;3.28;2.97;;;;;;;;;;5033192;28;20221;-87
2022/09/29 03:16:10;;;;;;;2.40;2.22;;;;;;;;;;5033342;28;20305;-88
2022/09/29 03:18:38;;;;;;;3.72;3.42;;;;;;;;;;5033955;28;20283;-87
2022/09/29 03:21:05;;;;;;;2.80;2.60;;;;;;;;;;5033168;28;20839;-86
2022/09/29 03:23:34;;;;;;;2.67;2.47;;;;;;;;;;5033049;28;20228;-86
2022/09/29 03:26:02;;;;;;;3.10;2.90;;;;;;;;;;5029683;28;20293;-87
2022/09/29 03:28:29;;;;;;;3.17;2.88;;;;;;;;;;5033445;28;20249;-87
2022/09/29 03:30:57;;;;;;;2.90;2.70;;;;;;;;;;5032932;28;20205;-87
2022/09/29 03:33:25;;;;;;;2.35;2.17;;;;;;;;;;5031313;28;20305;-87
2022/09/29 03:35:52;;;;;;;2.33;2.20;;;;;;;;;;5041170;28;20198;-88
2022/09/29 03:38:20;;;;;;;2.35;2.15;;;;;;;;;;5033527;28;20205;-87
2022/09/29 03:40:49;;;;;;;1.73;1.63;;;;;;;;;;5030986;28;20235;-87
2022/09/29 03:43:16;;;;;;;2.10;1.95;;;;;;;;;;5033426;28;20730;-87
2022/09/29 03:46:02;;;;;;;2.58;2.38;;;;;;;;;;5032690;28;20270;-87
2022/09/29 03:48:33;;;;;;;2.20;2.10;;;;;;;;;;5033679;28;20281;-87
2022/09/29 03:51:02;;;;;;;2.58;2.38;;;;;;;;;;5034401;28;20209;-86
2022/09/29 03:53:29;;;;;;;2.25;2.05;;;;;;;;;;5034180;28;20222;-87
2022/09/29 03:55:58;;;;;;;1.95;1.85;;;;;;;;;;5031956;28;20195;-86
2022/09/29 03:58:26;;;;;;;1.85;1.70;;;;;;;;;;5030721;28;20226;-86
2022/09/29 04:00:54;;;;;;;1.60;1.50;;;;;;;;;;5028695;28;20641;-87
2022/09/29 04:03:22;;;;;;;1.90;1.80;;;;;;;;;;5030300;28;20264;-88
2022/09/29 04:05:50;;;;;;;1.50;1.40;;;;;;;;;;5032198;28;20278;-87
2022/09/29 04:08:17;;;;;;;1.83;1.73;;;;;;;;;;5025688;28;20205;-87
2022/09/29 04:10:47;;;;;;;1.70;1.60;;;;;;;;;;5032647;28;20202;-87
2022/09/29 04:13:16;;;;;;;2.42;2.22;;;;;;;;;;5032746;28;20199;-86
2022/09/29 04:15:44;;;;;;;1.92;1.83;;;;;;;;;;5032881;28;20413;-87
2022/09/29 04:18:11;;;;;;;2.67;2.47;;;;;;;;;;5031657;28;20201;-87
2022/09/29 04:20:39;;;;;;;1.63;1.52;;;;;;;;;;5033188;28;20202;-86
2022/09/29 04:23:07;;;;;;;1.90;1.80;;;;;;;;;;5032170;28;20199;-86
2022/09/29 04:25:35;;;;;;;2.38;2.20;;;;;;;;;;5031590;28;20218;-86
2022/09/29 04:28:03;;;;;;;2.38;2.00;;;;;;;;;;5032513;28;20194;-86
2022/09/29 04:30:32;;;;;;;2.08;1.98;;;;;;;;;;5032299;28;20635;-88
2022/09/29 04:33:14;;;;;;;1.63;1.52;;;;;;;;;;5032039;28;20222;-87
2022/09/29 04:35:42;;;;;;;2.33;2.22;;;;;;;;;;5028346;28;20604;-87
2022/09/29 04:38:10;;;;;;;2.55;2.35;;;;;;;;;;5031958;28;20202;-86
2022/09/29 04:40:37;;;;;;;2.03;1.92;;;;;;;;;;5032568;28;20206;-87
2022/09/29 04:43:06;;;;;;;1.73;1.63;;;;;;;;;;5029430;28;20377;-86
2022/09/29 04:45:35;;;;;;;1.80;1.70;;;;;;;;;;5031869;28;20693;-88
2022/09/29 04:48:02;;;;;;;2.45;2.25;;;;;;;;;;5031705;28;20633;-86
2022/09/29 04:50:30;;;;;;;2.60;2.47;;;;;;;;;;5031972;28;20194;-87
2022/09/29 04:52:58;;;;;;;2.20;2.10;;;;;;;;;;5029644;28;20223;-86
2022/09/29 04:55:25;;;;;;;2.50;2.30;;;;;;;;;;5031403;28;20316;-87
2022/09/29 04:57:53;;;;;;;1.73;1.63;;;;;;;;;;5032639;28;20194;-87
2022/09/29 05:00:21;;;;;;;1.85;1.75;;;;;;;;;;5033646;28;20284;-86
2022/09/29 05:02:56;;;;;;;2.03;1.92;;;;;;;;;;5031426;28;20206;-87
2022/09/29 05:05:24;;;;;;;1.90;1.80;;;;;;;;;;5027094;28;20879;-80
2022/09/29 05:07:51;;;;;;;3.05;1.92;;;;;;;;;;5027551;28;20209;-81
2022/09/29 05:10:19;;;;;;;2.03;1.42;;;;;;;;;;5027059;28;20723;-80
2022/09/29 05:12:49;;;;;;;2.97;2.78;;;;;;;;;;5027496;28;20289;-81
2022/09/29 05:15:17;;;;;;;2.40;2.28;;;;;;;;;;5028593;28;20214;-81
2022/09/29 05:17:45;;;;;;;2.63;2.42;;;;;;;;;;5032042;28;20202;-82
2022/09/29 05:20:15;;;;;;;1.90;1.80;;;;;;;;;;5029801;28;20292;-82
2022/09/29 05:22:42;;;;;;;1.55;1.45;;;;;;;;;;5027760;28;20772;-81
2022/09/29 05:25:10;;;;;;;1.70;1.60;;;;;;;;;;5030727;28;20265;-81
2022/09/29 05:27:38;;;;;;;1.50;1.40;;;;;;;;;;5028273;28;20697;-83
2022/09/29 05:30:07;;;;;;;1.83;1.73;;;;;;;;;;5028909;28;20571;-81
2022/09/29 05:32:35;;;;;;;1.73;1.63;;;;;;;;;;5025660;28;20198;-81
2022/09/29 05:35:03;;;;;;;1.30;1.30;;;;;;;;;;5028525;28;20305;-82
2022/09/29 05:37:31;;;;;;;1.17;1.17;;;;;;;;;;5028012;28;20556;-81
2022/09/29 05:39:59;;;;;;;1.15;1.15;;;;;;;;;;5026696;28;20269;-80
2022/09/29 05:42:26;;;;;;;1.60;1.50;;;;;;;;;;5029705;28;20293;-81
2022/09/29 05:44:54;;;;;;;1.38;1.27;;;;;;;;;;5027822;28;20294;-82
2022/09/29 05:47:23;;;;;;;1.70;1.60;;;;;;;;;;5024902;28;20204;-81
2022/09/29 05:49:50;;;;;;;1.80;1.70;;;;;;;;;;5027294;28;20651;-80
2022/09/29 05:52:18;;;;;;;1.80;1.70;;;;;;;;;;5026278;28;20601;-80
2022/09/29 05:54:49;;;;;;;1.23;1.23;;;;;;;;;;5028219;28;20325;-81
2022/09/29 05:57:18;;;;;;;2.17;1.98;;;;;;;;;;5027003;28;20199;-80
2022/09/29 05:59:46;;;;;;;1.70;1.60;;;;;;;;;;5024026;28;20199;-81
2022/09/29 06:02:13;;;;;;;5.55;5.05;;;;;;;;;;5031560;28;20290;-81
2022/09/29 06:04:41;;;;;;;2.92;2.67;;;;;;;;;;5030107;28;20320;-82
2022/09/29 06:07:08;;;;;;;2.38;2.17;;;;;;;;;;5029284;28;20203;-81
2022/09/29 06:09:35;;;;;;;2.78;2.58;;;;;;;;;;5030575;28;20640;-81
2022/09/29 06:12:05;;;;;;;1.50;1.40;;;;;;;;;;5028769;28;20549;-81
2022/09/29 06:14:32;;;;;;;1.88;1.77;;;;;;;;;;5028065;28;20622;-80
2022/09/29 06:16:59;;;;;;;1.20;1.20;;;;;;;;;;5029449;28;20199;-80
2022/09/29 06:19:27;;;;;;;1.65;1.55;;;;;;;;;;5029085;28;20233;-81
2022/09/29 06:21:54;;;;;;;1.73;1.63;;;;;;;;;;5028923;28;20289;-81
2022/09/29 06:24:22;;;;;;;2.20;2.10;;;;;;;;;;5029922;28;20313;-80
2022/09/29 06:26:49;;;;;;;2.30;2.20;;;;;;;;;;5034496;28;20242;-82
2022/09/29 06:29:18;;;;;;;3.17;2.80;;;;;;;;;;5045550;28;20579;-81
2022/09/29 06:31:46;;;;;;;1.60;1.50;;;;;;;;;;5036562;28;20208;-81
2022/09/29 06:34:13;;;;;;;1.70;1.60;;;;;;;;;;5030468;28;20305;-81
2022/09/29 06:39:28;;;;;;;2.75;2.53;;;;;;;;;;5032233;28;20634;-81
2022/09/29 06:41:56;;;;;;;2.70;2.50;;;;;;;;;;5021242;28;20218;-80
2022/09/29 06:44:29;;;;;;;2.08;1.92;;;;;;;;;;5046098;28;20217;-81
2022/09/29 06:46:57;;;;;;;2.70;2.50;;;;;;;;;;5033089;28;20705;-81
2022/09/29 06:49:25;;;;;;;2.25;2.10;;;;;;;;;;5045457;28;20262;-80
2022/09/29 06:51:53;;;;;;;2.40;2.13;;;;;;;;;;5032159;28;20194;-81
2022/09/29 06:54:23;;;;;;;2.42;2.22;;;;;;;;;;5043302;28;20213;-79
2022/09/29 06:56:53;;;;;;;1.92;1.83;;;;;;;;;;5022346;28;20199;-80
2022/09/29 06:59:20;;;;;;;1.60;1.50;;;;;;;;;;5026817;28;20234;-80
2022/09/29 07:01:49;;;;;;;2.17;2.08;;;;;;;;;;5034671;28;20203;-81
2022/09/29 07:04:17;;;;;;;2.55;2.40;;;;;;;;;;5032827;28;20218;-81
2022/09/29 07:06:45;;;;;;;2.28;2.17;;;;;;;;;;5034942;28;20241;-81
2022/09/29 07:09:14;;;;;;;1.90;1.80;;;;;;;;;;5040133;28;20197;-81
2022/09/29 07:11:45;;;;;;;2.00;1.90;;;;;;;;;;5051191;28;20193;-81
2022/09/29 07:14:13;;;;;;;1.83;1.73;;;;;;;;;;5018334;28;20293;-80
2022/09/29 07:16:40;;;;;;;1.75;1.65;;;;;;;;;;5028227;28;20581;-81
2022/09/29 07:19:10;;;;;;;2.40;2.30;;;;;;;;;;5050028;28;20201;-81
2022/09/29 07:21:37;;;;;;;1.75;1.65;;;;;;;;;;5027321;28;20199;-82
2022/09/29 07:24:05;;;;;;;2.03;1.92;;;;;;;;;;5041429;28;20289;-81
2022/09/29 07:26:33;;;;;;;2.80;2.60;;;;;;;;;;5045166;28;20581;-80
2022/09/29 07:29:00;;;;;;;2.00;1.90;;;;;;;;;;5040840;28;20197;-80
2022/09/29 07:31:28;;;;;;;3.10;2.90;;;;;;;;;;5043438;28;20757;-80
2022/09/29 07:33:57;;;;;;;3.00;2.80;;;;;;;;;;5045451;28;20310;-81
2022/09/29 07:36:26;;;;;;;2.78;2.50;;;;;;;;;;5029649;28;20275;-81
2022/09/29 07:38:53;;;;;;;1.90;1.80;;;;;;;;;;5034741;28;20230;-82
2022/09/29 07:41:22;;;;;;;2.95;2.75;;;;;;;;;;5048961;28;20296;-81
2022/09/29 07:43:50;;;;;;;3.38;3.08;;;;;;;;;;5033157;28;20253;-81
2022/09/29 07:46:17;;;;;;;2.60;2.40;;;;;;;;;;5034244;28;20230;-81
2022/09/29 07:48:45;;;;;;;2.65;2.45;;;;;;;;;;5033581;28;20262;-82
2022/09/29 07:51:15;;;;;;;2.45;2.25;;;;;;;;;;5027800;28;20195;-80
2022/09/29 07:53:44;;;;;;;2.70;2.50;;;;;;;;;;5036660;28;20218;-80
2022/09/29 07:56:14;;;;;;;2.67;2.47;;;;;;;;;;5044905;28;20194;-81
2022/09/29 07:58:42;;;;;;;2.40;2.20;;;;;;;;;;5037008;28;20206;-81
2022/09/29 08:01:12;;;;;;;2.60;2.40;;;;;;;;;;5033145;28;20204;-81
2022/09/29 08:03:41;;;;;;;3.17;2.83;;;;;;;;;;5041535;28;20222;-81
2022/09/29 08:06:09;;;;;;;2.97;2.78;;;;;;;;;;5037162;28;20222;-81
2022/09/29 08:08:37;;;;;;;2.38;2.22;;;;;;;;;;5022552;28;20194;-82
2022/09/29 08:11:08;;;;;;;2.67;2.47;;;;;;;;;;5030887;28;20209;-83
2022/09/29 08:13:36;;;;;;;2.20;2.10;;;;;;;;;;5044185;28;20214;-82
2022/09/29 08:16:08;;;;;;;1.80;1.70;;;;;;;;;;5036616;28;20625;-83
2022/09/29 08:18:36;;;;;;;2.60;2.40;;;;;;;;;;5036466;28;20203;-82
2022/09/29 08:21:05;;;;;;;3.60;3.33;;;;;;;;;;5026186;28;20262;-82
2022/09/29 08:23:37;;;;;;;2.83;2.63;;;;;;;;;;5038444;28;20564;-82
2022/09/29 08:26:08;;;;;;;2.72;2.53;;;;;;;;;;5030516;28;20198;-84
2022/09/29 08:28:37;;;;;;;2.28;2.17;;;;;;;;;;5035367;28;20297;-84
2022/09/29 08:31:06;;;;;;;2.60;2.40;;;;;;;;;;5035053;28;20680;-85
2022/09/29 08:33:35;;;;;;;3.22;2.92;;;;;;;;;;5041956;28;20312;-82
2022/09/29 08:36:13;;;;;;;3.58;3.28;;;;;;;;;;5030940;28;20202;-83
2022/09/29 08:38:42;;;;;;;5.20;4.20;;;;;;;;;;5052882;28;20197;-82
2022/09/29 08:41:40;;;;;;;4.35;3.95;;;;;;;;;;5056653;28;20704;-81
2022/09/29 08:44:13;;;;;;;3.78;3.50;;;;;;;;;;5042342;28;20229;-81
2022/09/29 08:46:44;;;;;;;4.47;4.10;;;;;;;;;;5035839;28;20728;-82
2022/09/29 08:49:17;;;;;;;3.33;3.13;;;;;;;;;;5042513;28;20198;-82
2022/09/29 08:51:48;;;;;;;3.50;3.30;;;;;;;;;;5035661;28;20202;-81
2022/09/29 08:54:25;;;;;;;3.97;3.67;;;;;;;;;;5016345;28;20234;-83
2022/09/29 08:56:54;;;;;;;5.05;4.65;;;;;;;;;;5033710;28;20202;-84
2022/09/29 08:59:24;;;;;;;5.75;5.22;;;;;;;;;;5042465;28;20225;-83
2022/09/29 09:02:09;;;;;;;3.97;3.63;;;;;;;;;;5039388;28;20545;-82
2022/09/29 09:04:58;;;;;;;4.95;4.55;;;;;;;;;;5049061;28;20308;-82
2022/09/29 09:07:34;;;;;;;3.97;3.42;;;;;;;;;;5041012;28;20219;-83
2022/09/29 09:10:13;;;;;;;4.22;3.83;;;;;;;;;;5022333;28;20210;-82
2022/09/29 09:13:15;;;;;;;3.50;3.28;;;;;;;;;;5024623;28;20199;-83
2022/09/29 09:15:57;;;;;;;3.38;2.88;;;;;;;;;;5040867;28;20194;-82
2022/09/29 09:18:54;;;;;;;3.53;3.22;;;;;;;;;;5045000;28;20196;-82
2022/09/29 09:21:28;;;;;;;4.35;4.05;;;;;;;;;;5030504;28;20208;-83
2022/09/29 09:23:57;;;;;;;5.40;4.90;;;;;;;;;;5025239;28;20709;-82
2022/09/29 09:26:32;;;;;;;5.13;4.63;;;;;;;;;;5047499;28;20270;-82
2022/09/29 09:29:04;;;;;;;3.50;3.20;;;;;;;;;;5055047;28;20201;-83
2022/09/29 09:31:39;;;;;;;4.10;3.75;;;;;;;;;;5045000;28;20208;-81
2022/09/29 09:34:13;;;;;;;6.97;6.35;;;;;;;;;;5041568;28;20232;-82
2022/09/29 09:36:44;;;;;;;7.47;6.72;;;;;;;;;;5030966;28;20427;-82
2022/09/29 09:39:15;;;;;;;4.45;4.10;;;;;;;;;;5017072;28;20195;-82
2022/09/29 09:41:44;;;;;;;3.80;3.50;;;;;;;;;;5038890;28;20200;-83
2022/09/29 09:44:16;;;;;;;7.63;6.57;;;;;;;;;;5048924;28;20300;-83
2022/09/29 09:46:48;;;;;;;6.75;6.07;;;;;;;;;;5034401;28;20289;-83
2022/09/29 09:49:21;;;;;;;6.15;5.55;;;;;;;;;;5046556;28;20232;-82
2022/09/29 09:51:55;;;;;;;4.95;4.50;;;;;;;;;;5041692;28;20223;-82
2022/09/29 09:54:30;;;;;;;5.07;4.65;;;;;;;;;;5051241;28;20213;-83
2022/09/29 09:57:34;;;;;;;4.47;4.07;;;;;;;;;;5017641;28;20198;-83
2022/09/29 10:00:10;;;;;;;6.63;5.95;;;;;;;;;;5035068;28;20216;-83
2022/09/29 10:02:42;;;;;;;6.43;5.80;;;;;;;;;;5035390;28;20269;-82
2022/09/29 10:05:12;;;;;;;5.75;5.25;;;;;;;;;;5035269;28;20222;-83
2022/09/29 10:07:40;;;;;;;6.70;6.10;;;;;;;;;;5030489;28;20222;-83
2022/09/29 10:10:17;;;;;;;6.72;5.85;;;;;;;;;;5041768;28;20280;-82
2022/09/29 10:12:45;;;;;;;8.05;7.30;;;;;;;;;;5031557;28;20200;-82
2022/09/29 10:15:20;;;;;;;5.65;5.15;;;;;;;;;;5048525;28;20217;-82
2022/09/29 10:17:58;;;;;;;6.25;5.65;;;;;;;;;;5041453;28;20200;-83
2022/09/29 10:20:34;;;;;;;6.60;6.00;;;;;;;;;;5040429;28;20301;-83
2022/09/29 10:23:41;;;;;;;6.05;5.45;;;;;;;;;;5036053;28;20211;-83
2022/09/29 10:26:13;;;;;;;6.32;5.68;;;;;;;;;;5019222;28;20203;-82
2022/09/29 10:28:44;;;;;;;7.22;6.53;;;;;;;;;;5025247;28;20230;-82
2022/09/29 10:31:23;;;;;;;6.32;5.82;;;;;;;;;;5045786;28;20202;-83
2022/09/29 10:33:57;;;;;;;7.03;6.32;;;;;;;;;;5043134;28;20609;-83
2022/09/29 10:36:26;;;;;;;4.90;4.50;;;;;;;;;;5040464;28;20212;-82
2022/09/29 10:38:55;;;;;;;5.57;5.13;;;;;;;;;;5033962;28;20195;-83
2022/09/29 10:41:24;;;;;;;5.47;4.95;;;;;;;;;;5050821;28;20198;-82
2022/09/29 10:43:52;;;;;;;5.55;5.05;;;;;;;;;;5046694;28;20221;-83
2022/09/29 10:46:53;;;;;;;4.38;4.07;;;;;;;;;;5045702;28;20216;-83
2022/09/29 10:49:22;;;;;;;3.40;3.10;;;;;;;;;;5037243;28;20230;-82
2022/09/29 10:52:00;;;;;;;3.95;3.70;;;;;;;;;;5039876;28;20220;-82
2022/09/29 10:54:29;;;;;;;4.68;4.28;;;;;;;;;;5049727;28;20216;-82
2022/09/29 10:56:58;;;;;;;4.13;3.83;;;;;;;;;;5058228;28;20198;-83
2022/09/29 10:59:26;;;;;;;4.13;3.72;;;;;;;;;;5032568;28;20697;-85
2022/09/29 11:01:57;;;;;;;5.13;4.53;;;;;;;;;;5030745;28;20226;-82
2022/09/29 11:04:28;;;;;;;4.53;4.22;;;;;;;;;;5037685;28;20287;-83
2022/09/29 11:06:56;;;;;;;5.03;4.63;;;;;;;;;;5038873;28;20215;-83
2022/09/29 11:09:36;;;;;;;3.90;3.60;;;;;;;;;;5041444;28;20308;-83
2022/09/29 11:12:04;;;;;;;4.65;4.25;;;;;;;;;;5043693;28;20252;-84
2022/09/29 11:14:41;;;;;;;3.65;3.10;;;;;;;;;;5038060;28;20286;-85
2022/09/29 11:17:24;;;;;;;5.18;4.78;;;;;;;;;;5036581;28;20198;-82
2022/09/29 11:19:53;;;;;;;3.17;2.90;;;;;;;;;;5030879;28;20190;-85
2022/09/29 11:22:45;;;;;;;3.83;3.53;;;;;;;;;;5033278;28;20680;-85
2022/09/29 11:25:47;;;;;;;4.32;4.00;;;;;;;;;;5023494;28;20222;-83
2022/09/29 11:28:33;;;;;;;3.55;3.25;;;;;;;;;;4993932;28;20222;-82
2022/09/29 11:31:13;;;;;;;3.63;3.08;;;;;;;;;;5029005;28;20240;-82
2022/09/29 11:33:52;;;;;;;3.80;3.50;;;;;;;;;;5036013;28;20214;-82
2022/09/29 11:36:25;;;;;;;2.60;2.40;;;;;;;;;;5048063;28;20205;-82
2022/09/29 11:39:06;;;;;;;3.03;2.83;;;;;;;;;;5025158;28;20195;-81
2022/09/29 11:41:46;;;;;;;3.05;2.85;;;;;;;;;;5024906;28;20677;-82
2022/09/29 11:44:40;;;;;;;3.03;2.83;;;;;;;;;;5017351;28;20223;-82
2022/09/29 11:47:25;;;;;;;4.70;4.30;;;;;;;;;;5035024;28;20202;-82
2022/09/29 11:50:11;;;;;;;2.80;2.60;;;;;;;;;;5044484;28;20241;-82
2022/09/29 11:52:51;;;;;;;2.28;2.08;;;;;;;;;;5041612;28;20198;-82
2022/09/29 11:55:48;;;;;;;3.00;2.72;;;;;;;;;;5026721;28;20210;-82
2022/09/29 11:58:29;;;;;;;2.35;1.88;;;;;;;;;;5030758;28;20195;-82
2022/09/29 12:01:10;;;;;;;2.60;2.40;;;;;;;;;;5028579;28;20285;-82
2022/09/29 12:03:46;;;;;;;3.20;2.97;;;;;;;;;;5034764;28;20221;-83
2022/09/29 12:06:57;;;;;;;3.40;3.10;;;;;;;;;;5029027;28;20208;-82
2022/09/29 12:09:52;;;;;;;2.35;2.15;;;;;;;;;;5026452;28;20229;-83
2022/09/29 12:12:25;;;;;;;2.03;1.85;;;;;;;;;;5038045;28;20202;-83
2022/09/29 12:15:09;;;;;;;2.03;1.83;;;;;;;;;;5034719;28;20229;-83
2022/09/29 12:17:42;;;;;;;2.60;2.40;;;;;;;;;;5019943;28;20202;-83
2022/09/29 12:20:18;;;;;;;2.80;2.60;;;;;;;;;;5029569;28;20688;-83
2022/09/29 12:22:48;;;;;;;3.15;2.95;;;;;;;;;;5036038;28;20195;-84
2022/09/29 12:25:18;;;;;;;3.67;3.38;;;;;;;;;;5016420;28;20302;-83
2022/09/29 12:27:47;;;;;;;5.90;5.38;;;;;;;;;;5035572;28;20206;-83
2022/09/29 12:30:28;;;;;;;5.88;5.28;;;;;;;;;;5043232;28;20305;-82
2022/09/29 12:33:00;;;;;;;5.95;4.82;;;;;;;;;;5032272;28;20214;-83
2022/09/29 12:35:34;;;;;;;3.22;2.90;;;;;;;;;;5039752;28;20210;-83
2022/09/29 12:38:15;;;;;;;2.92;2.70;;;;;;;;;;5040663;28;20308;-82
2022/09/29 12:40:46;;;;;;;2.28;2.10;;;;;;;;;;5018260;28;20205;-83
2022/09/29 12:43:19;;;;;;;2.15;2.05;;;;;;;;;;5031489;28;20666;-83
2022/09/29 12:45:56;;;;;;;1.90;1.80;;;;;;;;;;5033560;28;20220;-82
2022/09/29 12:48:40;;;;;;;1.83;1.73;;;;;;;;;;5025636;28;20209;-83
2022/09/29 12:51:14;;;;;;;1.67;1.58;;;;;;;;;;5031575;28;20207;-82
2022/09/29 12:54:00;;;;;;;1.75;1.65;;;;;;;;;;5032079;28;20218;-83
2022/09/29 12:56:33;;;;;;;2.30;2.20;;;;;;;;;;5027563;28;20690;-83
2022/09/29 12:59:05;;;;;;;2.33;2.10;;;;;;;;;;5035278;28;20669;-83
2022/09/29 13:01:35;;;;;;;2.65;2.45;;;;;;;;;;5040528;28;20198;-83
2022/09/29 13:04:41;;;;;;;3.65;2.80;;;;;;;;;;5037924;28;20230;-83
2022/09/29 13:07:38;;;;;;;4.85;4.15;;;;;;;;;;5022730;28;20194;-81
2022/09/29 13:10:31;;;;;;;7.35;5.70;;;;;;;;;;5027027;28;20656;-83
2022/09/29 13:13:42;;;;;;;6.93;4.93;;;;;;;;;;5037830;28;20687;-84
2022/09/29 13:16:22;;;;;;;5.00;4.50;;;;;;;;;;5027936;28;20212;-84
2022/09/29 13:19:40;;;;;;;3.25;3.00;;;;;;;;;;5035545;28;20198;-83
2022/09/29 13:22:30;;;;;;;2.75;2.55;;;;;;;;;;5017584;28;20194;-83
2022/09/29 13:25:05;;;;;;;3.33;3.03;;;;;;;;;;5015730;28;20215;-84
2022/09/29 13:27:36;;;;;;;2.53;2.20;;;;;;;;;;5029747;28;20198;-83
2022/09/29 13:30:13;;;;;;;2.10;2.00;;;;;;;;;;5040108;28;20257;-83
2022/09/29 13:32:42;;;;;;;1.83;1.70;;;;;;;;;;5029625;28;20209;-83
2022/09/29 13:35:17;;;;;;;1.50;1.40;;;;;;;;;;5034443;28;20214;-83
2022/09/29 13:37:49;;;;;;;1.33;1.23;;;;;;;;;;5026950;28;20348;-83
2022/09/29 13:40:23;;;;;;;1.50;1.40;;;;;;;;;;5038991;28;20194;-83
2022/09/29 13:42:54;;;;;;;1.60;1.50;;;;;;;;;;5027602;28;20285;-83
2022/09/29 13:45:43;;;;;;;1.10;1.10;;;;;;;;;;5012584;28;20720;-83
2022/09/29 13:48:49;;;;;;;1.50;1.40;;;;;;;;;;5025893;28;20678;-83
2022/09/29 13:51:46;;;;;;;1.45;1.30;;;;;;;;;;5021936;28;20666;-83
2022/09/29 13:54:36;;;;;;;1.00;1.00;;;;;;;;;;5013831;28;20569;-83
2022/09/29 13:57:28;;;;;;;0.80;0.80;;;;;;;;;;5022519;28;20297;-83
2022/09/29 14:00:20;;;;;;;0.55;0.55;;;;;;;;;;5037107;28;20226;-82
2022/09/29 14:03:00;;;;;;;0.77;0.77;;;;;;;;;;5037043;28;20745;-83
2022/09/29 14:05:53;;;;;;;0.50;0.50;;;;;;;;;;5036895;28;20222;-83
2022/09/29 14:08:27;;;;;;;0.90;0.90;;;;;;;;;;5023919;28;20209;-83
2022/09/29 14:11:02;;;;;;;1.02;1.02;;;;;;;;;;5042856;28;20240;-83
2022/09/29 14:13:34;;;;;;;0.75;0.75;;;;;;;;;;5048193;28;20223;-83
2022/09/29 14:16:19;;;;;;;0.80;0.80;;;;;;;;;;5032053;28;20218;-83
2022/09/29 14:18:51;;;;;;;0.80;0.80;;;;;;;;;;5039632;28;20206;-83
2022/09/29 14:21:52;;;;;;;0.80;0.80;;;;;;;;;;5052285;28;20232;-82
2022/09/29 14:24:48;;;;;;;1.08;1.00;;;;;;;;;;5033847;28;20306;-83
2022/09/29 14:27:32;;;;;;;1.00;1.00;;;;;;;;;;5045503;28;20204;-82
2022/09/29 14:30:11;;;;;;;0.80;0.80;;;;;;;;;;5051580;28;20228;-81
2022/09/29 14:32:45;;;;;;;0.60;0.60;;;;;;;;;;5040374;28;20202;-83
2022/09/29 14:35:28;;;;;;;0.60;0.60;;;;;;;;;;5042457;28;20229;-82
2022/09/29 14:38:04;;;;;;;0.47;0.47;;;;;;;;;;5032769;28;20226;-82
2022/09/29 14:40:33;;;;;;;0.55;0.55;;;;;;;;;;5031946;28;20202;-83
2022/09/29 14:43:15;;;;;;;0.50;0.50;;;;;;;;;;5034597;28;20206;-83
2022/09/29 14:52:22;;;;;;;0.68;0.68;;;;;;;;;;5020506;28;20195;-82
2022/09/29 14:55:01;;;;;;;0.60;0.60;;;;;;;;;;5038296;28;20241;-82
2022/09/29 14:58:08;;;;;;;0.70;0.70;;;;;;;;;;5031841;28;20198;-82
2022/09/29 15:00:56;;;;;;;1.00;0.52;;;;;;;;;;5021279;28;20201;-82
2022/09/29 15:03:29;;;;;;;0.70;0.70;;;;;;;;;;5029736;28;20195;-83
2022/09/29 15:06:15;;;;;;;0.80;0.80;;;;;;;;;;5042699;28;20318;-82
2022/09/29 15:08:43;;;;;;;0.60;0.60;;;;;;;;;;5036393;28;20199;-82
2022/09/29 15:11:26;;;;;;;0.57;0.57;;;;;;;;;;5029456;28;20223;-83
2022/09/29 15:13:55;;;;;;;11.25;0.80;;;;;;;;;;5042331;28;20218;-84
2022/09/29 15:16:33;;;;;;;1.05;1.05;;;;;;;;;;5040970;28;20717;-82
2022/09/29 15:19:28;;;;;;;0.93;0.93;;;;;;;;;;5036330;28;20198;-83
2022/09/29 15:22:09;;;;;;;1.58;1.00;;;;;;;;;;5028573;28;20280;-82
2022/09/29 15:25:00;;;;;;;0.90;0.90;;;;;;;;;;5029186;28;20214;-82
2022/09/29 15:27:27;;;;;;;0.98;0.98;;;;;;;;;;5029207;28;20203;-83
2022/09/29 15:29:56;;;;;;;0.80;0.80;;;;;;;;;;5042845;28;20202;-83
2022/09/29 15:32:26;;;;;;;0.75;0.75;;;;;;;;;;5035410;28;20203;-83
2022/09/29 15:35:01;;;;;;;0.70;0.70;;;;;;;;;;5036777;28;20325;-83